This is the latest recevied weather packets stored in our database for station/object NE1CU. If no packets are shown the sender has not sent any weather packets the latest 10 day(s).
| Time | Temp. | Humidity | Pressure | Rain* | Wind** | Luminosity | Snow |
|---|---|---|---|---|---|---|---|
| 1777906840 | 17.78° C | 37% | 1012.2 hPa | 0 mm | - | 830 W/m² | - |
| 1777906537 | 17.78° C | 37% | 1012.3 hPa | 0 mm | - | 819 W/m² | - |
| 1777906232 | 17.78° C | 39% | 1012.5 hPa | 0 mm | - | 808 W/m² | - |
| 1777905929 | 17.22° C | 39% | 1012.3 hPa | 0 mm | - | 801 W/m² | - |
| 1777905626 | 17.22° C | 40% | 1012.4 hPa | 0 mm | - | 787 W/m² | - |
| 1777905323 | 17.22° C | 39% | 1012.4 hPa | 0 mm | - | 776 W/m² | - |
| 1777905021 | 16.67° C | 40% | 1012.5 hPa | 0 mm | - | 763 W/m² | - |
| 1777904718 | 17.22° C | 39% | 1012.4 hPa | 0 mm | - | 746 W/m² | - |
| 1777904415 | 17.22° C | 39% | 1012.5 hPa | 0 mm | - | 736 W/m² | - |
| 1777904111 | 17.22° C | 39% | 1012.5 hPa | 0 mm | - | 722 W/m² | - |
| 1777903808 | 16.67° C | 42% | 1012.6 hPa | 0 mm | - | 706 W/m² | - |
| 1777903505 | 17.22° C | 42% | 1012.5 hPa | 0 mm | - | 690 W/m² | - |
| 1777903201 | 16.67° C | 41% | 1012.5 hPa | 0 mm | - | 673 W/m² | - |
| 1777902897 | 16.67° C | 40% | 1012.6 hPa | 0 mm | - | 662 W/m² | - |
| 1777902595 | 16.67° C | 41% | 1012.7 hPa | 0 mm | - | 648 W/m² | - |
| 1777902292 | 16.11° C | 41% | 1012.6 hPa | 0 mm | - | 631 W/m² | - |
| 1777901989 | 16.67° C | 40% | 1012.7 hPa | 0 mm | - | 612 W/m² | - |
| 1777901687 | 16.11° C | 41% | 1012.8 hPa | 0 mm | - | 596 W/m² | - |
| 1777901384 | 15.56° C | 42% | 1013 hPa | 0 mm | - | 579 W/m² | - |
| 1777901082 | 15.56° C | 41% | 1013 hPa | 0 mm | - | 562 W/m² | - |
| 1777900779 | 15.56° C | 41% | 1013 hPa | 0 mm | - | 543 W/m² | - |
| 1777900476 | 15.56° C | 42% | 1013 hPa | 0 mm | - | 524 W/m² | - |
| 1777900173 | 15.56° C | 40% | 1012.9 hPa | 0 mm | - | 507 W/m² | - |
| 1777899869 | 15.56° C | 42% | 1013 hPa | 0 mm | - | 478 W/m² | - |
| 1777899566 | 15° C | 44% | 1013.1 hPa | 0 mm | - | 469 W/m² | - |
* Rain latest hour (hover to see other rain measurements)
** Current wind speed in m/s (hover to see current wind gust speed)